createdAt,value
2022-12-08T00:00:27.159Z,-8.10
2022-12-08T00:01:27.160Z,-8.09
2022-12-08T00:02:27.339Z,-8.09
2022-12-08T00:03:27.350Z,-8.09
2022-12-08T00:04:27.149Z,-8.10
2022-12-08T00:05:27.122Z,-8.09
2022-12-08T00:06:27.095Z,-8.13
2022-12-08T00:07:27.101Z,-8.09
2022-12-08T00:08:27.175Z,-8.06
2022-12-08T00:09:27.154Z,-8.03
2022-12-08T00:10:48.482Z,-8.02
2022-12-08T00:11:27.063Z,-8.03
2022-12-08T00:12:27.046Z,-8.05
2022-12-08T00:13:27.028Z,-8.05
2022-12-08T00:14:27.038Z,-8.06
2022-12-08T00:15:27.002Z,-8.08
2022-12-08T00:16:27.072Z,-8.08
2022-12-08T00:17:27.015Z,-8.14
2022-12-08T00:18:26.984Z,-8.13
2022-12-08T00:19:26.976Z,-8.09
2022-12-08T00:20:27.502Z,-8.09
2022-12-08T00:21:26.947Z,-8.08
2022-12-08T00:22:26.953Z,-8.10
2022-12-08T00:23:26.926Z,-8.14
2022-12-08T00:24:26.911Z,-8.10
2022-12-08T00:25:26.909Z,-8.16
2022-12-08T00:26:26.924Z,-8.13
2022-12-08T00:27:26.874Z,-8.13
2022-12-08T00:28:26.879Z,-8.14
2022-12-08T00:29:26.863Z,-8.16
2022-12-08T00:30:26.851Z,-8.14
2022-12-08T00:31:26.914Z,-8.14
2022-12-08T00:32:26.833Z,-8.16
2022-12-08T00:33:26.825Z,-8.16
2022-12-08T00:34:26.790Z,-8.16
2022-12-08T00:35:26.835Z,-8.20
2022-12-08T00:36:26.775Z,-8.23
2022-12-08T00:37:26.762Z,-8.23
2022-12-08T00:38:26.764Z,-8.24
2022-12-08T00:39:26.796Z,-8.31
2022-12-08T00:40:26.769Z,-8.34
2022-12-08T00:41:26.731Z,-8.41
2022-12-08T00:42:26.720Z,-8.41
2022-12-08T00:43:26.712Z,-8.44
2022-12-08T00:44:26.694Z,-8.47
2022-12-08T00:45:26.691Z,-8.48
2022-12-08T00:46:26.757Z,-8.50
2022-12-08T00:47:26.669Z,-8.50
2022-12-08T00:48:27.794Z,-8.55
2022-12-08T00:49:26.650Z,-8.56
2022-12-08T00:50:26.644Z,-8.58
2022-12-08T00:51:26.616Z,-8.58
2022-12-08T00:52:26.636Z,-8.60
2022-12-08T00:53:26.616Z,-8.63
2022-12-08T00:54:26.605Z,-8.62
2022-12-08T00:55:26.595Z,-8.65
2022-12-08T00:56:26.568Z,-8.68
2022-12-08T00:57:26.601Z,-8.63
2022-12-08T00:58:26.557Z,-8.63
2022-12-08T00:59:26.545Z,-8.65
2022-12-08T01:00:26.535Z,-8.70
2022-12-08T01:01:26.637Z,-8.68
2022-12-08T01:02:26.587Z,-8.70
2022-12-08T01:03:26.586Z,-8.68
2022-12-08T01:04:26.500Z,-8.68
2022-12-08T01:05:26.480Z,-8.66
2022-12-08T01:06:26.473Z,-8.71
2022-12-08T01:07:26.475Z,-8.73
2022-12-08T01:08:26.547Z,-8.73
2022-12-08T01:09:26.437Z,-8.74
2022-12-08T01:10:26.413Z,-8.71
2022-12-08T01:11:26.441Z,-8.71
2022-12-08T01:12:26.404Z,-8.74
2022-12-08T01:13:26.403Z,-8.77
2022-12-08T01:14:26.404Z,-8.77
2022-12-08T01:15:26.384Z,-8.77
2022-12-08T01:16:26.536Z,-8.76
2022-12-08T01:17:26.357Z,-8.74
2022-12-08T01:18:26.348Z,-8.76
2022-12-08T01:19:26.475Z,-8.77
2022-12-08T01:20:26.351Z,-8.80
2022-12-08T01:21:26.318Z,-8.80
2022-12-08T01:22:26.326Z,-8.78
2022-12-08T01:23:26.309Z,-8.80
2022-12-08T01:24:26.302Z,-8.81
2022-12-08T01:25:26.307Z,-8.80
2022-12-08T01:26:26.329Z,-8.78
2022-12-08T01:27:26.251Z,-8.81
2022-12-08T01:28:26.232Z,-8.78
2022-12-08T01:29:26.232Z,-8.77
2022-12-08T01:30:26.211Z,-8.78
2022-12-08T01:31:26.270Z,-8.80
2022-12-08T01:32:26.214Z,-8.81
2022-12-08T01:33:26.241Z,-8.83
2022-12-08T01:34:26.175Z,-8.84
2022-12-08T01:35:26.168Z,-8.86
2022-12-08T01:36:26.155Z,-8.91
2022-12-08T01:37:26.156Z,-8.95
2022-12-08T01:38:26.132Z,-8.97
2022-12-08T01:39:26.121Z,-8.99
2022-12-08T01:40:26.106Z,-9.01
2022-12-08T01:41:26.090Z,-8.98
2022-12-08T01:42:26.101Z,-8.99
2022-12-08T01:43:26.087Z,-9.02
2022-12-08T01:44:26.068Z,-9.04
2022-12-08T01:45:26.053Z,-9.04
2022-12-08T01:46:26.169Z,-9.10
2022-12-08T01:47:26.060Z,-9.15
2022-12-08T01:48:26.101Z,-9.20
2022-12-08T01:49:26.094Z,-9.22
2022-12-08T01:50:26.012Z,-9.26
2022-12-08T01:51:26.007Z,-9.28
2022-12-08T01:52:26.033Z,-9.28
2022-12-08T01:53:25.979Z,-9.33
2022-12-08T01:54:25.948Z,-9.33
2022-12-08T01:55:25.956Z,-9.38
2022-12-08T01:56:25.950Z,-9.46
2022-12-08T01:57:25.928Z,-9.49
2022-12-08T01:58:25.944Z,-9.48
2022-12-08T01:59:25.912Z,-9.49
2022-12-08T02:00:25.909Z,-9.49
2022-12-08T02:01:25.962Z,-9.50
2022-12-08T02:02:25.970Z,-9.50
2022-12-08T02:03:25.872Z,-9.53
2022-12-08T02:04:25.857Z,-9.56
2022-12-08T02:05:27.636Z,-9.66
2022-12-08T02:06:25.849Z,-9.70
2022-12-08T02:07:25.839Z,-9.74
2022-12-08T02:08:25.930Z,-9.77
2022-12-08T02:09:25.834Z,-9.82
2022-12-08T02:10:27.758Z,-9.82
2022-12-08T02:11:25.786Z,-9.85
2022-12-08T02:12:25.882Z,-9.85
2022-12-08T02:13:26.352Z,-9.87
2022-12-08T02:14:25.745Z,-9.91
2022-12-08T02:15:25.762Z,-9.94
2022-12-08T02:16:25.805Z,-9.94
2022-12-08T02:17:25.730Z,-9.95
2022-12-08T02:18:25.821Z,-9.98
2022-12-08T02:19:32.998Z,-10.02
2022-12-08T02:20:25.705Z,-10.02
2022-12-08T02:21:25.724Z,-10.05
2022-12-08T02:22:25.668Z,-10.08
2022-12-08T02:23:25.654Z,-10.12
2022-12-08T02:24:25.682Z,-10.13
2022-12-08T02:25:25.645Z,-10.16
2022-12-08T02:26:25.646Z,-10.18
2022-12-08T02:27:25.621Z,-10.16
2022-12-08T02:28:25.602Z,-10.16
2022-12-08T02:29:25.585Z,-10.18
2022-12-08T02:30:25.769Z,-10.21
2022-12-08T02:31:25.689Z,-10.24
2022-12-08T02:32:25.565Z,-10.24
2022-12-08T02:33:25.587Z,-10.21
2022-12-08T02:34:25.548Z,-10.23
2022-12-08T02:35:25.657Z,-10.24
2022-12-08T02:36:25.535Z,-10.27
2022-12-08T02:37:25.541Z,-10.29
2022-12-08T02:38:25.510Z,-10.30
2022-12-08T02:39:25.492Z,-10.31
2022-12-08T02:40:25.561Z,-10.30
2022-12-08T02:41:25.473Z,-10.31
2022-12-08T02:42:25.448Z,-10.33
2022-12-08T02:43:25.441Z,-10.34
2022-12-08T02:44:25.444Z,-10.36
2022-12-08T02:45:25.432Z,-10.36
2022-12-08T02:46:25.539Z,-10.36
2022-12-08T02:47:25.405Z,-10.36
2022-12-08T02:48:25.383Z,-10.36
2022-12-08T02:49:25.387Z,-10.31
2022-12-08T02:50:25.392Z,-10.33
2022-12-08T02:51:25.382Z,-10.34
2022-12-08T02:52:25.353Z,-10.36
2022-12-08T02:53:25.350Z,-10.38
2022-12-08T02:54:25.340Z,-10.42
2022-12-08T02:55:25.325Z,-10.47
2022-12-08T02:56:25.339Z,-10.51
2022-12-08T02:57:25.307Z,-10.54
2022-12-08T02:58:25.290Z,-10.60
2022-12-08T02:59:25.354Z,-10.60
2022-12-08T03:00:25.270Z,-10.59
2022-12-08T03:01:25.336Z,-10.59
2022-12-08T03:02:25.285Z,-10.60
2022-12-08T03:03:25.237Z,-10.60
2022-12-08T03:04:25.240Z,-10.60
2022-12-08T03:05:25.241Z,-10.63
2022-12-08T03:06:25.207Z,-10.65
2022-12-08T03:07:25.189Z,-10.69
2022-12-08T03:08:25.331Z,-10.70
2022-12-08T03:09:25.170Z,-10.70
2022-12-08T03:10:25.163Z,-10.70
2022-12-08T03:11:25.166Z,-10.70
2022-12-08T03:12:25.145Z,-10.72
2022-12-08T03:13:25.132Z,-10.73
2022-12-08T03:14:25.143Z,-10.76
2022-12-08T03:15:25.100Z,-10.77
2022-12-08T03:16:25.248Z,-10.79
2022-12-08T03:17:25.084Z,-10.77
2022-12-08T03:18:25.076Z,-10.81
2022-12-08T03:19:25.078Z,-10.80
2022-12-08T03:20:25.094Z,-10.80
2022-12-08T03:21:25.081Z,-10.83
2022-12-08T03:22:25.067Z,-10.90
2022-12-08T03:23:25.050Z,-10.91
2022-12-08T03:24:25.013Z,-10.91
2022-12-08T03:25:25.025Z,-10.94
2022-12-08T03:26:25.030Z,-10.98
2022-12-08T03:27:25.065Z,-10.99
2022-12-08T03:28:24.987Z,-11.02
2022-12-08T03:29:24.986Z,-11.03
2022-12-08T03:30:25.031Z,-11.02
2022-12-08T03:31:25.014Z,-11.05
2022-12-08T03:32:24.955Z,-11.05
2022-12-08T03:33:24.931Z,-11.08
2022-12-08T03:34:24.922Z,-11.11
2022-12-08T03:35:24.968Z,-11.14
2022-12-08T03:36:24.880Z,-11.19
2022-12-08T03:37:24.920Z,-11.20
2022-12-08T03:38:24.871Z,-11.24
2022-12-08T03:39:24.871Z,-11.26
2022-12-08T03:40:24.887Z,-11.29
2022-12-08T03:41:24.838Z,-11.34
2022-12-08T03:42:24.824Z,-11.34
2022-12-08T03:43:24.839Z,-11.35
2022-12-08T03:44:24.814Z,-11.38
2022-12-08T03:45:24.796Z,-11.38
2022-12-08T03:46:55.680Z,-11.38
2022-12-08T03:47:56.638Z,-11.38
2022-12-08T03:48:56.626Z,-11.37
2022-12-08T03:49:56.625Z,-11.37
2022-12-08T03:50:56.687Z,-11.40
2022-12-08T03:51:56.620Z,-11.37
2022-12-08T03:52:56.622Z,-11.38
2022-12-08T03:53:56.590Z,-11.37
2022-12-08T03:54:56.580Z,-11.35
2022-12-08T03:55:56.562Z,-11.35
2022-12-08T03:56:56.556Z,-11.34
2022-12-08T03:57:56.572Z,-11.31
2022-12-08T03:58:56.540Z,-11.31
2022-12-08T03:59:56.547Z,-11.29
2022-12-08T04:00:56.510Z,-11.31
2022-12-08T04:01:56.659Z,-11.31
2022-12-08T04:02:56.577Z,-11.27
2022-12-08T04:03:56.521Z,-11.30
2022-12-08T04:04:56.484Z,-11.31
2022-12-08T04:05:56.449Z,-11.31
2022-12-08T04:06:56.442Z,-11.27
2022-12-08T04:07:56.520Z,-11.24
2022-12-08T04:08:56.433Z,-11.23
2022-12-08T04:09:56.427Z,-11.19
2022-12-08T04:10:56.417Z,-11.17
2022-12-08T04:11:56.385Z,-11.11
2022-12-08T04:12:56.406Z,-11.06
2022-12-08T04:13:56.382Z,-10.99
2022-12-08T04:14:56.396Z,-10.94
2022-12-08T04:15:56.461Z,-10.88
2022-12-08T04:16:56.356Z,-10.79
2022-12-08T04:17:56.347Z,-10.72
2022-12-08T04:18:56.333Z,-10.65
2022-12-08T04:19:57.115Z,-10.54
2022-12-08T04:20:56.356Z,-10.45
2022-12-08T04:21:56.288Z,-10.41
2022-12-08T04:22:56.284Z,-10.33
2022-12-08T04:24:01.004Z,-10.26
2022-12-08T04:24:56.268Z,-10.18
2022-12-08T04:25:56.251Z,-10.12
2022-12-08T04:26:56.248Z,-10.06
2022-12-08T04:27:56.229Z,-10.02
2022-12-08T04:28:56.208Z,-9.97
2022-12-08T04:29:56.235Z,-10.02
2022-12-08T04:30:56.281Z,-10.00
2022-12-08T04:31:56.288Z,-9.97
2022-12-08T04:32:56.168Z,-9.94
2022-12-08T04:33:56.159Z,-9.94
2022-12-08T04:34:56.162Z,-9.92
2022-12-08T04:35:56.164Z,-9.88
2022-12-08T04:36:56.145Z,-9.80
2022-12-08T04:37:56.129Z,-9.73
2022-12-08T04:38:56.135Z,-9.67
2022-12-08T04:39:56.164Z,-9.60
2022-12-08T04:40:56.085Z,-9.56
2022-12-08T04:41:56.086Z,-9.52
2022-12-08T04:42:56.071Z,-9.50
2022-12-08T04:43:56.080Z,-9.49
2022-12-08T04:44:56.072Z,-9.48
2022-12-08T04:45:57.017Z,-9.49
2022-12-08T04:46:56.074Z,-9.46
2022-12-08T04:47:56.061Z,-9.46
2022-12-08T04:48:56.005Z,-9.46
2022-12-08T04:49:56.028Z,-9.46
2022-12-08T04:50:55.982Z,-9.45
2022-12-08T04:51:55.979Z,-9.41
2022-12-08T04:52:55.954Z,-9.41
2022-12-08T04:53:55.959Z,-9.45
2022-12-08T04:54:56.006Z,-9.45
2022-12-08T04:55:55.937Z,-9.40
2022-12-08T04:56:55.936Z,-9.40
2022-12-08T04:57:55.923Z,-9.40
2022-12-08T04:58:55.895Z,-9.38
2022-12-08T04:59:55.892Z,-9.40
2022-12-08T05:00:55.893Z,-9.40
2022-12-08T05:01:56.014Z,-9.41
2022-12-08T05:02:56.004Z,-9.45
2022-12-08T05:03:55.861Z,-9.46
2022-12-08T05:04:55.828Z,-9.48
2022-12-08T05:05:55.821Z,-9.50
2022-12-08T05:06:55.817Z,-9.55
2022-12-08T05:07:55.875Z,-9.56
2022-12-08T05:08:55.894Z,-9.60
2022-12-08T05:09:55.771Z,-9.64
2022-12-08T05:10:55.788Z,-9.67
2022-12-08T05:11:55.762Z,-9.70
2022-12-08T05:12:55.746Z,-9.74
2022-12-08T05:13:55.758Z,-9.77
2022-12-08T05:14:55.739Z,-9.80
2022-12-08T05:15:55.797Z,-9.84
2022-12-08T05:16:55.719Z,-9.85
2022-12-08T05:17:55.704Z,-9.87
2022-12-08T05:18:55.707Z,-9.92
2022-12-08T05:19:55.727Z,-9.94
2022-12-08T05:20:55.671Z,-9.98
2022-12-08T05:21:55.667Z,-10.05
2022-12-08T05:22:55.647Z,-10.08
2022-12-08T05:23:55.652Z,-10.15
2022-12-08T05:24:55.653Z,-10.18
2022-12-08T05:25:55.640Z,-10.21
2022-12-08T05:26:55.630Z,-10.23
2022-12-08T05:28:17.707Z,-10.26
2022-12-08T05:28:55.585Z,-10.29
2022-12-08T05:29:55.584Z,-10.30
2022-12-08T05:30:55.557Z,-10.30
2022-12-08T05:31:55.634Z,-10.29
2022-12-08T05:32:55.543Z,-10.26
2022-12-08T05:33:58.422Z,-10.20
2022-12-08T05:34:56.039Z,-10.15
2022-12-08T05:35:55.499Z,-10.10
2022-12-08T05:36:55.528Z,-10.05
2022-12-08T05:37:55.475Z,-9.97
2022-12-08T05:38:55.503Z,-9.95
2022-12-08T05:39:55.461Z,-9.95
2022-12-08T05:40:55.456Z,-9.91
2022-12-08T05:41:55.458Z,-9.88
2022-12-08T05:42:55.425Z,-9.87
2022-12-08T05:43:55.426Z,-9.87
2022-12-08T05:44:55.437Z,-9.88
2022-12-08T05:45:55.482Z,-9.89
2022-12-08T05:46:55.414Z,-9.85
2022-12-08T05:47:55.418Z,-9.82
2022-12-08T05:48:55.363Z,-9.82
2022-12-08T05:49:55.355Z,-9.77
2022-12-08T05:50:55.400Z,-9.77
2022-12-08T05:51:55.350Z,-9.74
2022-12-08T05:52:55.330Z,-9.70
2022-12-08T05:53:55.317Z,-9.67
2022-12-08T05:54:55.296Z,-9.55
2022-12-08T05:55:55.331Z,-9.48
2022-12-08T05:56:55.308Z,-9.40
2022-12-08T05:57:55.288Z,-9.36
2022-12-08T05:58:55.258Z,-9.31
2022-12-08T05:59:55.275Z,-9.30
2022-12-08T06:00:55.230Z,-9.28
2022-12-08T06:01:55.316Z,-9.27
2022-12-08T06:02:55.368Z,-9.23
2022-12-08T06:03:55.229Z,-9.23
2022-12-08T06:04:55.192Z,-9.22
2022-12-08T06:05:56.161Z,-9.23
2022-12-08T06:06:55.198Z,-9.22
2022-12-08T06:07:55.231Z,-9.22
2022-12-08T06:08:55.175Z,-9.19
2022-12-08T06:09:55.141Z,-9.16
2022-12-08T06:10:55.139Z,-9.12
2022-12-08T06:11:55.159Z,-9.08
2022-12-08T06:12:55.123Z,-9.06
2022-12-08T06:13:55.088Z,-9.02
2022-12-08T06:14:55.109Z,-8.99
2022-12-08T06:15:55.105Z,-8.97
2022-12-08T06:16:55.169Z,-8.98
2022-12-08T06:17:55.063Z,-8.98
2022-12-08T06:18:55.069Z,-8.94
2022-12-08T06:19:55.046Z,-8.92
2022-12-08T06:20:55.043Z,-8.92
2022-12-08T06:21:55.091Z,-8.92
2022-12-08T06:22:55.015Z,-8.91
2022-12-08T06:23:55.015Z,-8.91
2022-12-08T06:24:55.086Z,-8.88
2022-12-08T06:25:54.998Z,-8.86
2022-12-08T06:26:54.975Z,-8.88
2022-12-08T06:27:54.984Z,-8.88
2022-12-08T06:28:54.943Z,-8.83
2022-12-08T06:29:54.954Z,-8.81
2022-12-08T06:30:54.931Z,-8.81
2022-12-08T06:31:55.023Z,-8.83
2022-12-08T06:32:54.976Z,-8.80
2022-12-08T06:33:54.900Z,-8.80
2022-12-08T06:34:54.887Z,-8.78
2022-12-08T06:35:54.880Z,-8.78
2022-12-08T06:36:54.896Z,-8.77
2022-12-08T06:37:54.854Z,-8.76
2022-12-08T06:38:54.841Z,-8.76
2022-12-08T06:39:54.844Z,-8.74
2022-12-08T06:40:54.812Z,-8.71
2022-12-08T06:41:54.911Z,-8.71
2022-12-08T06:42:54.820Z,-8.73
2022-12-08T06:43:54.789Z,-8.71
2022-12-08T06:44:54.810Z,-8.70
2022-12-08T06:45:54.867Z,-8.70
2022-12-08T06:46:54.769Z,-8.71
2022-12-08T06:47:54.757Z,-8.73
2022-12-08T06:48:54.742Z,-8.74
2022-12-08T06:49:54.731Z,-8.73
2022-12-08T06:50:54.702Z,-8.73
2022-12-08T06:51:54.718Z,-8.73
2022-12-08T06:53:03.146Z,-8.70
2022-12-08T06:53:54.690Z,-8.66
2022-12-08T06:54:54.667Z,-8.65
2022-12-08T06:56:01.823Z,-8.66
2022-12-08T06:56:54.692Z,-8.66
2022-12-08T06:57:54.652Z,-8.66
2022-12-08T06:58:54.621Z,-8.71
2022-12-08T06:59:54.624Z,-8.66
2022-12-08T07:00:54.651Z,-8.68
2022-12-08T07:01:54.616Z,-8.68
2022-12-08T07:02:54.733Z,-8.68
2022-12-08T07:03:54.577Z,-8.70
2022-12-08T07:04:54.548Z,-8.71
2022-12-08T07:05:56.003Z,-8.70
2022-12-08T07:06:54.554Z,-8.70
2022-12-08T07:07:54.625Z,-8.71
2022-12-08T07:08:54.547Z,-8.74
2022-12-08T07:09:54.526Z,-8.76
2022-12-08T07:10:54.507Z,-8.77
2022-12-08T07:11:54.515Z,-8.80
2022-12-08T07:12:54.496Z,-8.80
2022-12-08T07:13:54.482Z,-8.80
2022-12-08T07:14:54.449Z,-8.80
2022-12-08T07:15:54.451Z,-8.81
2022-12-08T07:16:54.474Z,-8.81
2022-12-08T07:17:59.566Z,-8.81
2022-12-08T07:18:54.477Z,-8.84
2022-12-08T07:19:54.406Z,-8.86
2022-12-08T07:20:54.406Z,-8.86
2022-12-08T07:21:54.390Z,-8.84
2022-12-08T07:22:54.368Z,-8.88
2022-12-08T07:23:57.944Z,-8.84
2022-12-08T07:24:54.362Z,-8.86
2022-12-08T07:25:54.344Z,-8.86
2022-12-08T07:26:54.393Z,-8.88
2022-12-08T07:27:54.324Z,-8.89
2022-12-08T07:28:54.309Z,-8.89
2022-12-08T07:29:54.292Z,-8.91
2022-12-08T07:30:54.335Z,-8.91
2022-12-08T07:31:54.257Z,-8.89
2022-12-08T07:32:54.279Z,-8.91
2022-12-08T07:33:54.265Z,-8.91
2022-12-08T07:34:54.294Z,-8.89
2022-12-08T07:35:54.224Z,-8.91
2022-12-08T07:36:54.220Z,-8.89
2022-12-08T07:37:54.213Z,-8.91
2022-12-08T07:38:54.275Z,-8.91
2022-12-08T07:39:54.228Z,-8.89
2022-12-08T07:40:54.183Z,-8.89
2022-12-08T07:41:54.165Z,-8.89
2022-12-08T07:42:54.181Z,-8.89
2022-12-08T07:43:54.169Z,-8.88
2022-12-08T07:44:54.132Z,-8.86
2022-12-08T07:45:54.187Z,-8.86
2022-12-08T07:46:54.106Z,-8.86
2022-12-08T07:47:55.106Z,-8.84
2022-12-08T07:48:54.094Z,-8.83
2022-12-08T07:49:54.079Z,-8.81
2022-12-08T07:50:54.081Z,-8.81
2022-12-08T07:51:54.067Z,-8.78
2022-12-08T07:52:54.125Z,-8.80
2022-12-08T07:53:55.017Z,-8.77
2022-12-08T07:54:54.035Z,-8.80
2022-12-08T07:55:54.035Z,-8.78
2022-12-08T07:56:53.994Z,-8.78
2022-12-08T07:57:53.996Z,-8.77
2022-12-08T07:58:54.021Z,-8.77
2022-12-08T07:59:53.994Z,-8.76
2022-12-08T08:00:54.135Z,-8.71
2022-12-08T08:02:19.533Z,-8.73
2022-12-08T08:02:54.174Z,-8.71
2022-12-08T08:03:53.958Z,-8.73
2022-12-08T08:04:54.135Z,-8.73
2022-12-08T08:05:53.909Z,-8.71
2022-12-08T08:06:53.894Z,-8.68
2022-12-08T08:07:54.013Z,-8.70
2022-12-08T08:08:53.920Z,-8.66
2022-12-08T08:09:53.889Z,-8.65
2022-12-08T08:10:53.932Z,-8.65
2022-12-08T08:12:22.144Z,-8.66
2022-12-08T08:12:53.857Z,-8.63
2022-12-08T08:13:53.821Z,-8.58
2022-12-08T08:14:53.841Z,-8.52
2022-12-08T08:15:53.899Z,-8.42
2022-12-08T08:16:53.998Z,-8.42
2022-12-08T08:17:53.793Z,-8.44
2022-12-08T08:18:53.805Z,-8.45
2022-12-08T08:19:53.763Z,-8.44
2022-12-08T08:20:53.752Z,-8.44
2022-12-08T08:21:53.782Z,-8.44
2022-12-08T08:22:53.732Z,-8.44
2022-12-08T08:23:53.766Z,-8.39
2022-12-08T08:24:53.710Z,-8.41
2022-12-08T08:25:53.709Z,-8.41
2022-12-08T08:26:53.703Z,-8.39
2022-12-08T08:27:53.710Z,-8.37
2022-12-08T08:28:53.692Z,-8.37
2022-12-08T08:29:53.717Z,-8.34
2022-12-08T08:30:53.699Z,-8.32
2022-12-08T08:31:53.641Z,-8.32
2022-12-08T08:32:53.652Z,-8.31
2022-12-08T08:33:53.630Z,-8.31
2022-12-08T08:34:53.610Z,-8.27
2022-12-08T08:35:53.609Z,-8.27
2022-12-08T08:36:53.691Z,-8.26
2022-12-08T08:37:53.575Z,-8.27
2022-12-08T08:38:53.606Z,-8.24
2022-12-08T08:39:53.889Z,-8.24
2022-12-08T08:40:53.551Z,-8.26
2022-12-08T08:41:53.557Z,-8.21
2022-12-08T08:42:53.504Z,-8.19
2022-12-08T08:43:53.525Z,-8.16
2022-12-08T08:44:53.712Z,-8.14
2022-12-08T08:45:53.544Z,-8.09
2022-12-08T08:46:53.622Z,-8.08
2022-12-08T08:47:53.496Z,-8.08
2022-12-08T08:48:53.449Z,-8.06
2022-12-08T08:49:53.487Z,-8.06
2022-12-08T08:50:53.452Z,-8.06
2022-12-08T08:51:53.422Z,-8.06
2022-12-08T08:52:53.402Z,-8.06
2022-12-08T08:53:53.402Z,-8.06
2022-12-08T08:54:53.386Z,-8.03
2022-12-08T08:55:53.405Z,-8.02
2022-12-08T08:56:53.385Z,-7.99
2022-12-08T08:57:53.356Z,-7.98
2022-12-08T08:58:53.396Z,-7.97
2022-12-08T08:59:53.360Z,-7.99
2022-12-08T09:00:53.329Z,-7.98
2022-12-08T09:01:53.403Z,-7.97
2022-12-08T09:02:53.296Z,-7.95
2022-12-08T09:03:53.310Z,-7.97
2022-12-08T09:04:53.408Z,-7.95
2022-12-08T09:05:53.323Z,-7.94
2022-12-08T09:06:53.292Z,-7.91
2022-12-08T09:07:53.271Z,-7.91
2022-12-08T09:08:53.234Z,-7.91
2022-12-08T09:09:58.351Z,-7.91
2022-12-08T09:10:53.255Z,-7.94
2022-12-08T09:11:53.243Z,-7.91
2022-12-08T09:12:53.196Z,-7.94
2022-12-08T09:13:53.192Z,-7.95
2022-12-08T09:14:53.217Z,-7.91
2022-12-08T09:15:53.257Z,-7.90
2022-12-08T09:16:53.158Z,-7.88
2022-12-08T09:17:53.136Z,-7.88
2022-12-08T09:18:53.163Z,-7.88
2022-12-08T09:19:53.124Z,-7.86
2022-12-08T09:20:53.112Z,-7.83
2022-12-08T09:21:53.141Z,-7.83
2022-12-08T09:22:53.118Z,-7.81
2022-12-08T09:23:53.123Z,-7.77
2022-12-08T09:24:53.063Z,-7.77
2022-12-08T09:25:53.067Z,-7.77
2022-12-08T09:26:53.057Z,-7.76
2022-12-08T09:27:53.111Z,-7.76
2022-12-08T09:28:53.041Z,-7.70
2022-12-08T09:29:53.021Z,-7.72
2022-12-08T09:30:53.082Z,-7.72
2022-12-08T09:31:53.079Z,-7.74
2022-12-08T09:32:52.998Z,-7.70
2022-12-08T09:33:53.020Z,-7.72
2022-12-08T09:34:52.991Z,-7.72
2022-12-08T09:35:52.953Z,-7.69
2022-12-08T09:36:53.009Z,-7.69
2022-12-08T09:37:52.959Z,-7.66
2022-12-08T09:38:52.995Z,-7.65
2022-12-08T09:39:52.918Z,-7.66
2022-12-08T09:40:52.894Z,-7.68
2022-12-08T09:41:52.927Z,-7.66
2022-12-08T09:42:52.913Z,-7.68
2022-12-08T09:43:52.925Z,-7.63
2022-12-08T09:44:52.880Z,-7.63
2022-12-08T09:45:52.871Z,-7.65
2022-12-08T09:46:52.954Z,-7.63
2022-12-08T09:47:52.829Z,-7.62
2022-12-08T09:48:52.823Z,-7.60
2022-12-08T09:49:52.865Z,-7.58
2022-12-08T09:50:52.803Z,-7.56
2022-12-08T09:51:52.783Z,-7.58
2022-12-08T09:52:52.768Z,-7.59
2022-12-08T09:53:52.773Z,-7.58
2022-12-08T09:54:52.744Z,-7.58
2022-12-08T09:55:52.790Z,-7.54
2022-12-08T09:56:52.736Z,-7.56
2022-12-08T09:57:56.270Z,-7.54
2022-12-08T09:58:52.719Z,-7.56
2022-12-08T09:59:52.700Z,-7.56
2022-12-08T10:00:52.746Z,-7.58
2022-12-08T10:01:52.798Z,-7.58
2022-12-08T10:02:52.691Z,-7.59
2022-12-08T10:03:52.648Z,-7.58
2022-12-08T10:04:52.723Z,-7.60
2022-12-08T10:05:52.676Z,-7.58
2022-12-08T10:06:52.749Z,-7.60
2022-12-08T10:07:52.627Z,-7.62
2022-12-08T10:08:52.607Z,-7.65
2022-12-08T10:09:52.599Z,-7.62
2022-12-08T10:10:52.567Z,-7.62
2022-12-08T10:11:53.185Z,-7.62
2022-12-08T10:12:52.641Z,-7.60
2022-12-08T10:13:52.541Z,-7.60
2022-12-08T10:14:52.529Z,-7.60
2022-12-08T10:15:52.608Z,-7.58
2022-12-08T10:16:52.592Z,-7.58
2022-12-08T10:17:52.499Z,-7.56
2022-12-08T10:18:52.525Z,-7.59
2022-12-08T10:19:52.490Z,-7.58
2022-12-08T10:20:52.487Z,-7.58
2022-12-08T10:21:52.460Z,-7.56
2022-12-08T10:22:52.544Z,-7.59
2022-12-08T10:23:52.468Z,-7.56
2022-12-08T10:24:52.439Z,-7.56
2022-12-08T10:25:52.429Z,-7.56
2022-12-08T10:26:52.412Z,-7.56
2022-12-08T10:27:52.459Z,-7.54
2022-12-08T10:28:52.397Z,-7.54
2022-12-08T10:29:52.377Z,-7.54
2022-12-08T10:30:52.381Z,-7.54
2022-12-08T10:31:52.459Z,-7.52
2022-12-08T10:32:52.354Z,-7.54
2022-12-08T10:33:53.047Z,-7.52
2022-12-08T10:34:56.336Z,-7.52
2022-12-08T10:35:55.907Z,-7.51
2022-12-08T10:36:52.909Z,-7.51
2022-12-08T10:37:52.343Z,-7.52
2022-12-08T10:38:55.417Z,-7.49
2022-12-08T10:39:53.202Z,-7.49
2022-12-08T10:40:52.267Z,-7.49
2022-12-08T10:41:52.253Z,-7.49
2022-12-08T10:42:52.261Z,-7.49
2022-12-08T10:43:52.263Z,-7.49
2022-12-08T10:44:52.325Z,-7.49
2022-12-08T10:45:52.278Z,-7.49
2022-12-08T10:46:52.319Z,-7.49
2022-12-08T10:47:55.397Z,-7.48
2022-12-08T10:48:52.181Z,-7.48
2022-12-08T10:49:52.151Z,-7.51
2022-12-08T10:50:52.224Z,-7.52
2022-12-08T10:51:52.159Z,-7.52
2022-12-08T10:52:52.127Z,-7.51
2022-12-08T10:53:52.141Z,-7.51
2022-12-08T10:54:52.130Z,-7.51
2022-12-08T10:55:52.119Z,-7.54
2022-12-08T10:56:52.110Z,-7.51
2022-12-08T10:57:52.077Z,-7.49
2022-12-08T10:58:52.076Z,-7.51
2022-12-08T10:59:52.058Z,-7.47
2022-12-08T11:00:52.171Z,-7.48
2022-12-08T11:01:52.154Z,-7.48
2022-12-08T11:02:52.057Z,-7.49
2022-12-08T11:03:52.052Z,-7.51
2022-12-08T11:04:52.006Z,-7.51
2022-12-08T11:05:51.992Z,-7.49
2022-12-08T11:06:52.013Z,-7.48
2022-12-08T11:07:52.103Z,-7.48
2022-12-08T11:08:51.961Z,-7.48
2022-12-08T11:09:51.953Z,-7.44
2022-12-08T11:10:51.995Z,-7.41
2022-12-08T11:11:51.917Z,-7.41
2022-12-08T11:12:51.958Z,-7.41
2022-12-08T11:13:51.904Z,-7.38
2022-12-08T11:14:51.889Z,-7.37
2022-12-08T11:15:51.895Z,-7.37
2022-12-08T11:16:51.940Z,-7.34
2022-12-08T11:17:57.416Z,-7.34
2022-12-08T11:18:51.850Z,-7.33
2022-12-08T11:19:51.848Z,-7.31
2022-12-08T11:20:51.855Z,-7.31
2022-12-08T11:21:51.819Z,-7.31
2022-12-08T11:22:51.846Z,-7.31
2022-12-08T11:23:51.813Z,-7.31
2022-12-08T11:24:51.779Z,-7.29
2022-12-08T11:25:51.793Z,-7.30
2022-12-08T11:26:51.844Z,-7.31
2022-12-08T11:27:51.740Z,-7.33
2022-12-08T11:28:51.749Z,-7.33
2022-12-08T11:29:51.742Z,-7.34
2022-12-08T11:30:51.823Z,-7.38
2022-12-08T11:31:51.774Z,-7.34
2022-12-08T11:32:51.709Z,-7.34
2022-12-08T11:33:51.690Z,-7.31
2022-12-08T11:34:51.679Z,-7.33
2022-12-08T11:35:51.684Z,-7.30
2022-12-08T11:36:51.689Z,-7.31
2022-12-08T11:37:51.629Z,-7.33
2022-12-08T11:38:51.628Z,-7.33
2022-12-08T11:39:51.640Z,-7.30
2022-12-08T11:40:51.618Z,-7.30
2022-12-08T11:41:51.626Z,-7.31
2022-12-08T11:42:51.601Z,-7.30
2022-12-08T11:43:51.679Z,-7.30
2022-12-08T11:44:51.601Z,-7.31
2022-12-08T11:45:51.678Z,-7.31
2022-12-08T11:46:51.535Z,-7.30
2022-12-08T11:47:55.820Z,-7.31
2022-12-08T11:48:51.561Z,-7.33
2022-12-08T11:49:51.605Z,-7.31
2022-12-08T11:50:51.517Z,-7.31
2022-12-08T11:51:51.493Z,-7.29
2022-12-08T11:52:51.488Z,-7.31
2022-12-08T11:53:51.480Z,-7.29
2022-12-08T11:54:51.471Z,-7.29
2022-12-08T11:55:51.577Z,-7.30
2022-12-08T11:56:51.447Z,-7.27
2022-12-08T11:57:51.522Z,-7.23
2022-12-08T11:58:51.449Z,-7.27
2022-12-08T11:59:51.405Z,-7.24
2022-12-08T12:00:51.404Z,-7.27
2022-12-08T12:01:51.414Z,-7.29
2022-12-08T12:02:51.420Z,-7.24
2022-12-08T12:03:51.359Z,-7.24
2022-12-08T12:04:51.377Z,-7.24
2022-12-08T12:06:55.357Z,-7.26
2022-12-08T12:07:51.329Z,-7.24
2022-12-08T12:08:51.398Z,-7.26
2022-12-08T12:09:51.347Z,-7.24
2022-12-08T12:10:51.310Z,-7.23
2022-12-08T12:11:51.291Z,-7.23
2022-12-08T12:12:51.277Z,-7.27
2022-12-08T12:13:51.258Z,-7.27
2022-12-08T12:14:51.243Z,-7.29
2022-12-08T12:15:51.308Z,-7.30
2022-12-08T12:16:51.303Z,-7.27
2022-12-08T12:17:51.238Z,-7.27
2022-12-08T12:18:51.261Z,-7.30
2022-12-08T12:19:51.180Z,-7.29
2022-12-08T12:20:51.206Z,-7.27
2022-12-08T12:21:51.162Z,-7.29
2022-12-08T12:22:51.196Z,-7.29
2022-12-08T12:23:51.166Z,-7.29
2022-12-08T12:24:51.138Z,-7.29
2022-12-08T12:25:51.129Z,-7.31
2022-12-08T12:26:51.197Z,-7.33
2022-12-08T12:27:51.116Z,-7.33
2022-12-08T12:28:51.107Z,-7.33
2022-12-08T12:29:55.709Z,-7.31
2022-12-08T12:30:51.154Z,-7.26
2022-12-08T12:31:51.123Z,-7.27
2022-12-08T12:32:51.352Z,-7.29
2022-12-08T12:33:51.034Z,-7.31
2022-12-08T12:34:51.089Z,-7.29
2022-12-08T12:35:51.045Z,-7.29
2022-12-08T12:36:51.014Z,-7.30
2022-12-08T12:37:51.001Z,-7.29
2022-12-08T12:38:50.990Z,-7.30
2022-12-08T12:39:51.000Z,-7.31
2022-12-08T12:40:50.969Z,-7.33
2022-12-08T12:41:50.968Z,-7.31
2022-12-08T12:42:50.969Z,-7.30
2022-12-08T12:43:50.923Z,-7.29
2022-12-08T12:44:50.934Z,-7.29
2022-12-08T12:45:50.953Z,-7.29
2022-12-08T12:46:50.909Z,-7.29
2022-12-08T12:47:56.035Z,-7.27
2022-12-08T12:48:50.965Z,-7.29